createdAt,value
2023-01-04T00:00:25.153Z,70.06
2023-01-04T00:05:25.047Z,70.05
2023-01-04T00:10:24.988Z,70.02
2023-01-04T00:15:24.940Z,70.00
2023-01-04T00:20:24.837Z,70.01
2023-01-04T00:25:24.789Z,70.03
2023-01-04T00:30:24.722Z,70.02
2023-01-04T00:35:44.718Z,70.03
2023-01-04T00:40:25.572Z,70.02
2023-01-04T00:45:24.517Z,70.02
2023-01-04T00:50:24.456Z,70.01
2023-01-04T00:55:24.380Z,70.00
2023-01-04T01:00:24.293Z,69.97
2023-01-04T01:05:44.570Z,69.92
2023-01-04T01:10:36.957Z,69.87
2023-01-04T01:15:36.943Z,69.84
2023-01-04T01:20:36.831Z,69.81
2023-01-04T01:25:36.792Z,69.77
2023-01-04T01:30:36.697Z,69.75
2023-01-04T01:35:36.647Z,69.69
2023-01-04T01:40:36.566Z,69.64
2023-01-04T01:45:36.495Z,69.66
2023-01-04T01:50:36.426Z,69.61
2023-01-04T01:55:36.401Z,69.60
2023-01-04T02:00:36.302Z,69.59
2023-01-04T02:05:36.299Z,69.55
2023-01-04T02:10:36.160Z,69.50
2023-01-04T02:15:36.219Z,69.52
2023-01-04T02:20:36.116Z,69.56
2023-01-04T02:25:35.990Z,69.67
2023-01-04T02:30:35.900Z,69.81
2023-01-04T02:35:35.912Z,69.92
2023-01-04T02:40:35.760Z,70.04
2023-01-04T02:45:35.721Z,70.07
2023-01-04T02:50:35.640Z,70.08
2023-01-04T02:55:35.561Z,70.12
2023-01-04T03:00:35.545Z,70.12
2023-01-04T03:05:35.454Z,70.10
2023-01-04T03:10:35.351Z,70.08
2023-01-04T03:15:35.312Z,70.05
2023-01-04T03:20:35.231Z,70.03
2023-01-04T03:25:35.177Z,70.02
2023-01-04T03:30:35.065Z,70.00
2023-01-04T03:35:35.044Z,69.97
2023-01-04T03:40:34.964Z,69.96
2023-01-04T03:45:34.912Z,69.95
2023-01-04T03:50:34.817Z,69.94
2023-01-04T03:55:34.776Z,69.92
2023-01-04T04:00:34.739Z,69.88
2023-01-04T04:05:34.654Z,69.83
2023-01-04T04:10:34.567Z,69.81
2023-01-04T04:15:34.519Z,69.80
2023-01-04T04:20:34.440Z,69.77
2023-01-04T04:25:34.347Z,69.78
2023-01-04T04:30:34.281Z,69.78
2023-01-04T04:35:34.221Z,69.79
2023-01-04T04:40:34.145Z,69.85
2023-01-04T04:45:34.178Z,69.88
2023-01-04T04:50:34.020Z,69.91
2023-01-04T04:55:34.018Z,69.95
2023-01-04T05:00:33.885Z,70.01
2023-01-04T05:05:33.849Z,70.06
2023-01-04T05:10:33.766Z,70.12
2023-01-04T05:15:48.280Z,70.16
2023-01-04T05:20:40.678Z,70.17
2023-01-04T05:25:40.589Z,70.23
2023-01-04T05:30:40.551Z,70.26
2023-01-04T05:35:40.484Z,70.27
2023-01-04T05:40:40.379Z,70.34
2023-01-04T05:45:40.370Z,70.32
2023-01-04T05:50:40.262Z,70.36
2023-01-04T05:55:40.182Z,70.39
2023-01-04T06:00:40.143Z,70.36
2023-01-04T06:05:40.046Z,70.40
2023-01-04T06:10:40.003Z,70.41
2023-01-04T06:15:43.258Z,70.42
2023-01-04T06:20:39.871Z,70.45
2023-01-04T06:25:39.786Z,70.50
2023-01-04T06:30:39.772Z,70.65
2023-01-04T06:35:39.648Z,70.87
2023-01-04T06:40:39.575Z,70.95
2023-01-04T06:45:39.564Z,71.07
2023-01-04T06:50:39.468Z,71.07
2023-01-04T06:55:39.379Z,71.17
2023-01-04T07:00:39.327Z,71.27
2023-01-04T07:05:39.240Z,71.36
2023-01-04T07:10:39.210Z,71.38
2023-01-04T07:15:41.014Z,71.46
2023-01-04T07:20:39.055Z,71.60
2023-01-04T07:25:38.961Z,71.58
2023-01-04T07:30:38.963Z,71.67
2023-01-04T07:35:38.824Z,71.76
2023-01-04T07:40:56.280Z,71.86
2023-01-04T07:45:39.757Z,71.91
2023-01-04T07:50:38.660Z,71.91
2023-01-04T07:55:38.558Z,71.84
2023-01-04T08:00:38.521Z,71.82
2023-01-04T08:05:38.429Z,71.77
2023-01-04T08:10:38.384Z,71.76
2023-01-04T08:15:38.318Z,71.85
2023-01-04T08:20:38.298Z,71.92
2023-01-04T08:25:38.160Z,71.86
2023-01-04T08:30:38.118Z,71.78
2023-01-04T08:35:38.032Z,71.82
2023-01-04T08:40:59.675Z,71.86
2023-01-04T08:45:38.916Z,71.88
2023-01-04T08:50:37.858Z,71.98
2023-01-04T08:55:37.794Z,72.05
2023-01-04T09:00:37.702Z,71.98
2023-01-04T09:05:37.633Z,72.04
2023-01-04T09:10:37.582Z,72.00
2023-01-04T09:15:37.561Z,71.88
2023-01-04T09:20:37.467Z,71.87
2023-01-04T09:25:37.351Z,71.88
2023-01-04T09:30:37.320Z,71.84
2023-01-04T09:35:37.223Z,71.80
2023-01-04T09:40:37.237Z,71.71
2023-01-04T09:45:37.103Z,71.59
2023-01-04T09:50:37.031Z,71.62
2023-01-04T09:55:40.703Z,71.62
2023-01-04T10:00:43.435Z,71.54
2023-01-04T10:05:37.831Z,71.49
2023-01-04T10:10:36.758Z,71.49
2023-01-04T10:15:36.699Z,71.45
2023-01-04T10:25:37.584Z,71.32
2023-01-04T10:30:36.494Z,71.23
2023-01-04T10:35:36.432Z,71.36
2023-01-04T10:40:36.369Z,71.48
2023-01-04T10:45:36.273Z,71.56
2023-01-04T10:50:36.255Z,71.63
2023-01-04T10:55:36.154Z,71.66
2023-01-04T11:00:36.189Z,71.61
2023-01-04T11:05:36.020Z,71.62
2023-01-04T11:10:35.957Z,71.56
2023-01-04T11:15:35.884Z,71.45
2023-01-04T11:20:38.383Z,71.49
2023-01-04T11:25:36.820Z,71.60
2023-01-04T11:30:35.692Z,71.67
2023-01-04T11:35:41.852Z,71.74
2023-01-04T11:40:36.566Z,71.81
2023-01-04T11:45:35.503Z,71.80
2023-01-04T11:50:35.509Z,71.79
2023-01-04T11:55:35.346Z,71.91
2023-01-04T12:00:35.285Z,71.93
2023-01-04T12:05:35.215Z,71.91
2023-01-04T12:10:35.160Z,71.92
2023-01-04T12:15:35.054Z,72.04
2023-01-04T12:20:35.033Z,72.03
2023-01-04T12:25:34.930Z,72.10
2023-01-04T12:30:34.892Z,72.18
2023-01-04T12:35:35.613Z,72.28
2023-01-04T12:40:34.749Z,72.23
2023-01-04T12:45:34.674Z,72.24
2023-01-04T12:50:38.342Z,72.30
2023-01-04T12:55:41.990Z,72.22
2023-01-04T13:00:35.455Z,72.24
2023-01-04T13:10:35.340Z,72.28
2023-01-04T13:15:34.260Z,72.26
2023-01-04T13:20:34.223Z,72.25
2023-01-04T13:25:34.145Z,72.26
2023-01-04T13:30:34.085Z,72.20
2023-01-04T13:35:34.000Z,72.18
2023-01-04T13:40:33.957Z,72.12
2023-01-04T13:45:33.874Z,72.14
2023-01-04T13:50:33.818Z,72.15
2023-01-04T13:55:33.716Z,72.11
2023-01-04T14:00:37.128Z,72.16
2023-01-04T14:05:34.599Z,72.16
2023-01-04T14:10:33.604Z,72.14
2023-01-04T14:15:33.491Z,72.20
2023-01-04T14:20:33.394Z,72.23
2023-01-04T14:25:33.343Z,72.29
2023-01-04T14:30:33.237Z,72.34
2023-01-04T14:35:33.190Z,72.43
2023-01-04T14:40:33.141Z,72.58
2023-01-04T14:45:33.030Z,72.63
2023-01-04T14:50:33.006Z,72.72
2023-01-04T14:55:32.942Z,72.75
2023-01-04T15:00:32.846Z,72.81
2023-01-04T15:05:37.407Z,72.89
2023-01-04T15:10:33.728Z,72.96
2023-01-04T15:15:32.638Z,72.95
2023-01-04T15:20:32.592Z,73.07
2023-01-04T15:25:32.492Z,73.12
2023-01-04T15:30:32.439Z,73.16
2023-01-04T15:35:32.371Z,73.22
2023-01-04T15:40:32.317Z,73.35
2023-01-04T15:45:32.242Z,73.37
2023-01-04T15:50:32.189Z,73.38
2023-01-04T15:55:35.987Z,73.39
2023-01-04T16:00:32.072Z,73.47
2023-01-04T16:05:31.965Z,73.49
2023-01-04T16:10:31.916Z,73.49
2023-01-04T16:15:31.797Z,73.49
2023-01-04T16:20:31.765Z,73.58
2023-01-04T16:25:31.692Z,73.66
2023-01-04T16:30:31.625Z,73.62
2023-01-04T16:35:31.575Z,73.60
2023-01-04T16:40:31.506Z,73.57
2023-01-04T16:45:31.414Z,73.58
2023-01-04T16:50:31.371Z,73.58
2023-01-04T16:55:31.336Z,73.58
2023-01-04T17:00:31.329Z,73.62
2023-01-04T17:05:31.158Z,73.74
2023-01-04T17:10:31.108Z,73.85
2023-01-04T17:15:46.346Z,73.91
2023-01-04T17:20:31.972Z,74.07
2023-01-04T17:25:30.877Z,74.18
2023-01-04T17:30:30.824Z,74.30
2023-01-04T17:35:30.725Z,74.38
2023-01-04T17:40:30.701Z,74.46
2023-01-04T17:45:30.639Z,74.50
2023-01-04T17:50:30.598Z,74.56
2023-01-04T17:55:30.581Z,74.52
2023-01-04T18:00:30.417Z,74.47
2023-01-04T18:05:39.410Z,74.42
2023-01-04T18:10:48.495Z,74.37
2023-01-04T18:15:31.204Z,74.32
2023-01-04T18:20:30.174Z,74.29
2023-01-04T18:25:30.075Z,74.28
2023-01-04T18:30:30.033Z,74.25
2023-01-04T18:35:29.965Z,74.21
2023-01-04T18:40:29.905Z,74.21
2023-01-04T18:45:29.816Z,74.21
2023-01-04T18:50:30.176Z,74.21
2023-01-04T18:55:29.668Z,74.19
2023-01-04T19:00:29.619Z,74.22
2023-01-04T19:05:29.556Z,74.21
2023-01-04T19:10:29.473Z,74.21
2023-01-04T19:15:29.388Z,74.25
2023-01-04T19:20:29.396Z,74.18
2023-01-04T19:25:29.274Z,74.18
2023-01-04T19:30:29.263Z,74.09
2023-01-04T19:35:29.184Z,73.59
2023-01-04T19:40:29.059Z,73.11
2023-01-04T19:45:28.979Z,72.65
2023-01-04T19:50:28.967Z,72.34
2023-01-04T19:55:28.843Z,71.98
2023-01-04T20:00:28.831Z,71.49
2023-01-04T20:05:28.724Z,71.18
2023-01-04T20:10:28.671Z,70.50
2023-01-04T20:15:28.598Z,69.79
2023-01-04T20:20:28.549Z,69.68
2023-01-04T20:25:28.446Z,69.88
2023-01-04T20:30:28.417Z,69.58
2023-01-04T20:35:28.339Z,69.22
2023-01-04T20:40:28.331Z,69.08
2023-01-04T20:45:28.199Z,68.83
2023-01-04T20:50:28.129Z,68.42
2023-01-04T20:55:28.039Z,67.84
2023-01-04T21:00:27.999Z,67.77
2023-01-04T21:05:27.905Z,67.60
2023-01-04T21:10:27.854Z,67.74
2023-01-04T21:15:27.791Z,67.69
2023-01-04T21:20:27.718Z,67.94
2023-01-04T21:25:27.658Z,68.07
2023-01-04T21:30:27.614Z,68.37
2023-01-04T21:35:27.509Z,68.63
2023-01-04T21:40:27.476Z,68.73
2023-01-04T21:45:27.390Z,68.87
2023-01-04T21:50:27.313Z,69.01
2023-01-04T21:55:33.871Z,69.10
2023-01-04T22:00:28.225Z,69.28
2023-01-04T22:05:27.108Z,69.44
2023-01-04T22:10:27.047Z,69.61
2023-01-04T22:15:27.004Z,69.76
2023-01-04T22:20:26.942Z,69.94
2023-01-04T22:25:26.876Z,70.13
2023-01-04T22:30:26.769Z,70.27
2023-01-04T22:35:26.711Z,70.39
2023-01-04T22:40:26.629Z,70.57
2023-01-04T22:45:26.614Z,70.70
2023-01-04T22:50:26.568Z,70.85
2023-01-04T22:55:35.101Z,70.85
2023-01-04T23:00:27.369Z,70.93
2023-01-04T23:05:26.335Z,70.99
2023-01-04T23:10:26.257Z,71.04
2023-01-04T23:15:26.160Z,71.10
2023-01-04T23:20:26.115Z,71.23
2023-01-04T23:25:26.053Z,71.24
2023-01-04T23:30:25.978Z,71.25
2023-01-04T23:35:25.917Z,71.28
2023-01-04T23:40:25.822Z,71.28
2023-01-04T23:45:25.799Z,71.30
2023-01-04T23:50:25.715Z,71.33
2023-01-04T23:55:25.656Z,71.36
